Time;durP1;ratioP1;P1;durP2;ratioP2;P2;SDS_P1;SDS_P2;PMS_P1;PMS_P2;Temp;Humidity;BMP_temperature;BMP_pressure;BME280_temperature;BME280_humidity;BME280_pressure;Samples;Min_cycle;Max_cycle;Signal;HPM_P1;HPM_P2
2023/12/19 00:01:32;;;;;;;51.97;25.38;;;8.50;99.90;;;;;;5176131;27;20042;-86
2023/12/19 00:03:58;;;;;;;56.15;25.70;;;8.30;99.90;;;;;;5156673;27;20045;-86
2023/12/19 00:06:24;;;;;;;50.63;24.85;;;8.10;99.90;;;;;;5157387;27;20062;-86
2023/12/19 00:08:49;;;;;;;44.13;24.95;;;8.20;99.90;;;;;;5175902;27;20049;-86
2023/12/19 00:11:15;;;;;;;49.22;24.35;;;8.80;99.90;;;;;;5176022;27;20133;-86
2023/12/19 00:13:41;;;;;;;48.65;23.98;;;8.20;99.90;;;;;;5175552;27;20034;-86
2023/12/19 00:16:06;;;;;;;52.40;24.48;;;8.90;99.90;;;;;;5140019;27;20054;-86
2023/12/19 00:18:32;;;;;;;41.10;21.90;;;8.20;99.90;;;;;;5157058;27;20050;-86
2023/12/19 00:20:58;;;;;;;47.45;22.58;;;8.40;99.90;;;;;;5157097;27;20121;-85
2023/12/19 00:23:24;;;;;;;50.17;22.05;;;8.20;99.90;;;;;;5157404;27;20034;-86
2023/12/19 00:25:49;;;;;;;40.03;21.20;;;8.80;99.90;;;;;;5175907;27;20037;-86
2023/12/19 00:28:15;;;;;;;45.38;21.42;;;8.80;99.90;;;;;;5156846;27;20030;-86
2023/12/19 00:30:41;;;;;;;38.83;21.15;;;8.20;99.90;;;;;;5156794;27;20038;-86
2023/12/19 00:33:06;;;;;;;36.53;19.20;;;8.90;99.90;;;;;;5157057;27;20457;-86
2023/12/19 00:35:33;;;;;;;37.00;20.20;;;8.50;99.90;;;;;;5156898;27;20031;-86
2023/12/19 00:38:02;;;;;;;40.00;20.45;;;8.20;99.90;;;;;;5175665;27;20129;-86
2023/12/19 00:40:27;;;;;;;38.60;19.95;;;8.20;99.90;;;;;;5139554;27;20038;-85
2023/12/19 00:42:53;;;;;;;41.53;20.40;;;8.90;99.90;;;;;;5157086;27;20045;-86
2023/12/19 00:45:19;;;;;;;42.30;21.15;;;9.10;99.90;;;;;;5139913;27;20053;-86
2023/12/19 00:47:44;;;;;;;34.15;19.15;;;8.90;99.90;;;;;;5139027;27;20048;-86
2023/12/19 00:50:11;;;;;;;38.65;20.50;;;8.60;99.90;;;;;;5156782;27;20087;-86
2023/12/19 00:52:37;;;;;;;38.00;19.77;;;8.60;99.90;;;;;;5156562;27;20043;-86
2023/12/19 00:55:03;;;;;;;41.25;20.15;;;8.90;99.90;;;;;;5175262;27;20057;-86
2023/12/19 00:57:29;;;;;;;39.10;20.73;;;8.20;99.90;;;;;;5175194;27;20050;-85
2023/12/19 00:59:55;;;;;;;38.67;20.45;;;8.60;99.90;;;;;;5174574;27;20034;-85
2023/12/19 01:02:20;;;;;;;40.78;21.58;;;8.20;99.90;;;;;;5175006;27;20046;-86
2023/12/19 01:04:46;;;;;;;40.97;20.58;;;8.70;99.90;;;;;;5138848;27;20049;-86
2023/12/19 01:07:11;;;;;;;39.95;20.52;;;8.20;99.90;;;;;;5156127;27;20129;-87
2023/12/19 01:09:37;;;;;;;41.10;19.27;;;8.40;99.90;;;;;;5175155;27;20050;-86
2023/12/19 01:12:03;;;;;;;35.50;18.95;;;8.90;99.90;;;;;;5156406;27;20050;-86
2023/12/19 01:14:29;;;;;;;37.70;19.42;;;8.20;99.90;;;;;;5156394;27;20133;-86
2023/12/19 01:16:54;;;;;;;36.53;19.20;;;8.80;99.90;;;;;;5174897;27;20497;-86
2023/12/19 01:19:20;;;;;;;35.95;20.80;;;8.80;99.90;;;;;;5156247;27;20053;-86
2023/12/19 01:21:46;;;;;;;35.83;18.98;;;8.90;99.90;;;;;;5155699;27;20087;-86
2023/12/19 01:24:11;;;;;;;36.50;20.40;;;8.20;99.90;;;;;;5174851;27;20030;-85
2023/12/19 01:26:37;;;;;;;37.17;19.92;;;8.80;99.90;;;;;;5156293;27;20046;-86
2023/12/19 01:29:03;;;;;;;32.63;19.52;;;8.90;99.90;;;;;;5155620;27;20405;-85
2023/12/19 01:31:29;;;;;;;40.47;20.27;;;8.50;99.90;;;;;;5155997;27;20057;-86
2023/12/19 01:33:55;;;;;;;33.20;18.98;;;8.80;99.90;;;;;;5156575;27;20041;-86
2023/12/19 01:36:21;;;;;;;36.03;19.20;;;8.50;99.90;;;;;;5155857;27;20102;-86
2023/12/19 01:38:47;;;;;;;35.28;18.60;;;8.30;99.90;;;;;;5174875;27;20459;-86
2023/12/19 01:41:13;;;;;;;37.03;19.27;;;9.00;99.90;;;;;;5138894;27;20098;-86
2023/12/19 01:43:38;;;;;;;37.70;19.83;;;8.80;99.90;;;;;;5156307;27;20042;-86
2023/12/19 01:46:04;;;;;;;32.65;18.60;;;8.30;99.90;;;;;;5155984;27;20079;-85
2023/12/19 01:48:30;;;;;;;34.25;18.17;;;8.70;99.90;;;;;;5174544;27;20098;-85
2023/12/19 01:50:55;;;;;;;35.47;19.17;;;8.50;99.90;;;;;;5174215;27;20121;-86
2023/12/19 01:53:23;;;;;;;35.28;18.40;;;8.30;99.90;;;;;;5156419;27;20034;-86
2023/12/19 01:55:52;;;;;;;34.58;19.25;;;9.00;99.90;;;;;;5174355;27;20050;-86
2023/12/19 01:58:19;;;;;;;31.27;17.25;;;8.50;99.90;;;;;;5174624;27;20038;-85
2023/12/19 02:00:45;;;;;;;34.75;17.50;;;8.30;99.90;;;;;;5174462;27;20054;-86
2023/12/19 02:03:11;;;;;;;31.20;17.73;;;8.30;99.90;;;;;;5156182;27;20098;-86
2023/12/19 02:05:41;;;;;;;30.77;16.50;;;8.30;99.90;;;;;;5155878;27;20039;-85
2023/12/19 02:08:06;;;;;;;29.77;17.20;;;8.90;99.90;;;;;;5174662;27;20102;-85
2023/12/19 02:10:32;;;;;;;29.60;16.67;;;8.70;99.90;;;;;;5138030;27;20482;-86
2023/12/19 02:12:59;;;;;;;27.95;17.35;;;8.70;99.90;;;;;;5177483;27;20095;-85
2023/12/19 02:15:24;;;;;;;29.08;17.05;;;8.70;99.90;;;;;;5159874;27;20046;-85
2023/12/19 02:17:51;;;;;;;29.40;16.13;;;8.80;99.90;;;;;;5178141;27;20042;-86
2023/12/19 02:20:19;;;;;;;28.40;15.88;;;8.60;99.90;;;;;;5178090;27;20034;-86
2023/12/19 02:22:49;;;;;;;26.73;16.20;;;8.30;99.90;;;;;;5159691;27;20425;-86
2023/12/19 02:25:16;;;;;;;29.48;15.18;;;8.30;99.90;;;;;;5141791;27;20042;-86
2023/12/19 02:27:42;;;;;;;26.10;15.10;;;8.30;99.90;;;;;;5159413;27;20117;-86
2023/12/19 02:30:08;;;;;;;24.25;15.15;;;8.60;99.90;;;;;;5159300;27;20426;-86
2023/12/19 02:32:35;;;;;;;26.08;14.38;;;8.20;99.90;;;;;;5178018;27;20026;-86
2023/12/19 02:35:01;;;;;;;24.42;14.05;;;8.40;99.90;;;;;;5159005;27;20072;-85
2023/12/19 02:37:27;;;;;;;23.75;13.68;;;8.30;99.90;;;;;;5158894;27;20561;-86
2023/12/19 02:39:53;;;;;;;23.23;13.90;;;8.90;99.90;;;;;;5177909;27;20042;-85
2023/12/19 02:42:18;;;;;;;24.70;13.70;;;9.10;99.90;;;;;;5159183;27;20068;-85
2023/12/19 02:44:44;;;;;;;22.80;13.32;;;8.80;99.90;;;;;;5177682;27;20407;-85
2023/12/19 02:47:10;;;;;;;24.25;13.80;;;8.40;99.90;;;;;;5177079;27;20113;-85
2023/12/19 02:49:35;;;;;;;23.60;12.88;;;8.80;99.90;;;;;;5141899;27;20038;-86
2023/12/19 02:52:01;;;;;;;21.10;13.30;;;8.70;99.90;;;;;;5159121;27;20049;-85
2023/12/19 02:54:27;;;;;;;24.60;13.00;;;8.20;99.90;;;;;;5159016;27;20034;-85
2023/12/19 02:56:52;;;;;;;21.45;13.32;;;8.60;99.90;;;;;;5158865;27;20046;-86
2023/12/19 02:59:18;;;;;;;22.58;13.40;;;8.80;99.90;;;;;;5141622;27;20046;-86
2023/12/19 03:01:47;;;;;;;19.00;12.15;;;8.20;99.90;;;;;;5177009;27;20049;-86
2023/12/19 03:04:13;;;;;;;24.77;13.88;;;8.70;99.90;;;;;;5176463;27;20042;-86
2023/12/19 03:06:39;;;;;;;18.98;12.43;;;8.20;99.90;;;;;;5158640;27;20049;-86
2023/12/19 03:09:04;;;;;;;22.85;12.55;;;8.30;99.90;;;;;;5158672;27;20070;-86
2023/12/19 03:11:30;;;;;;;20.88;12.68;;;8.30;99.90;;;;;;5177110;27;20094;-85
2023/12/19 03:13:56;;;;;;;22.17;12.18;;;8.20;99.90;;;;;;5159038;27;20045;-85
2023/12/19 03:16:22;;;;;;;20.83;13.13;;;8.90;99.90;;;;;;5158390;27;20049;-86
2023/12/19 03:18:47;;;;;;;19.35;11.32;;;8.70;99.90;;;;;;5140680;27;20563;-85
2023/12/19 03:21:13;;;;;;;21.35;12.40;;;8.60;99.90;;;;;;5176568;27;20113;-86
2023/12/19 03:23:39;;;;;;;21.08;12.48;;;8.20;99.90;;;;;;5176309;27;20467;-86
2023/12/19 03:26:04;;;;;;;20.00;11.93;;;8.20;99.90;;;;;;5177202;27;20088;-85
2023/12/19 03:28:30;;;;;;;19.05;12.02;;;8.30;99.90;;;;;;5177048;27;20042;-85
2023/12/19 03:30:56;;;;;;;20.88;11.93;;;8.60;99.90;;;;;;5158374;27;20065;-86
2023/12/19 03:33:21;;;;;;;16.77;10.77;;;7.80;99.90;;;;;;5176823;27;20038;-86
2023/12/19 03:35:47;;;;;;;18.25;11.43;;;8.20;99.90;;;;;;5157825;27;20030;-86
2023/12/19 03:38:13;;;;;;;22.15;12.50;;;8.20;99.90;;;;;;5177078;27;20046;-85
2023/12/19 03:40:39;;;;;;;18.80;10.65;;;8.70;99.90;;;;;;5158395;27;20049;-85
2023/12/19 03:43:05;;;;;;;20.67;11.57;;;8.70;99.90;;;;;;5157945;27;20085;-86
2023/12/19 03:45:30;;;;;;;21.25;11.20;;;8.50;99.90;;;;;;5157895;27;20086;-85
2023/12/19 03:47:56;;;;;;;15.45;9.45;;;8.20;99.90;;;;;;5151187;27;20047;-85
2023/12/19 03:50:22;;;;;;;19.80;11.73;;;8.70;99.90;;;;;;5137401;27;20043;-86
2023/12/19 03:52:47;;;;;;;16.73;11.05;;;8.50;99.90;;;;;;5155573;27;20043;-86
2023/12/19 03:55:13;;;;;;;15.57;9.48;;;8.80;99.90;;;;;;5137239;27;20050;-86
2023/12/19 03:57:39;;;;;;;19.05;11.00;;;8.60;99.90;;;;;;5119359;27;20378;-87
2023/12/19 04:00:06;;;;;;;16.42;9.63;;;8.20;99.90;;;;;;5155686;27;20039;-86
2023/12/19 04:02:32;;;;;;;19.60;10.88;;;8.10;99.90;;;;;;5140334;27;20570;-86
2023/12/19 04:04:58;;;;;;;19.38;11.27;;;8.10;99.90;;;;;;5157316;27;20078;-85
2023/12/19 04:07:23;;;;;;;16.20;9.80;;;8.60;99.90;;;;;;5176443;27;20045;-86
2023/12/19 04:09:49;;;;;;;21.45;11.60;;;8.70;99.90;;;;;;5157057;27;20050;-86
2023/12/19 04:12:15;;;;;;;19.30;10.55;;;8.10;99.90;;;;;;5176083;27;20034;-86
2023/12/19 04:14:40;;;;;;;18.58;11.20;;;8.60;99.90;;;;;;5157550;27;20542;-86
2023/12/19 04:17:06;;;;;;;15.82;9.70;;;8.40;99.90;;;;;;5157284;27;20440;-85
2023/12/19 04:19:32;;;;;;;15.27;9.82;;;8.80;99.90;;;;;;5175552;27;20064;-85
2023/12/19 04:21:57;;;;;;;14.80;9.23;;;8.70;99.90;;;;;;5157485;27;20065;-86
2023/12/19 04:24:25;;;;;;;14.27;8.95;;;8.50;99.90;;;;;;5157097;27;20034;-86
2023/12/19 04:26:52;;;;;;;11.65;7.60;;;8.70;99.90;;;;;;5175967;27;20042;-86
2023/12/19 04:29:18;;;;;;;11.55;7.00;;;8.80;99.90;;;;;;5175883;27;20030;-85
2023/12/19 04:31:44;;;;;;;14.20;7.47;;;8.60;99.90;;;;;;5157137;27;20152;-85
2023/12/19 04:34:10;;;;;;;10.30;6.97;;;8.10;99.90;;;;;;5175642;27;20030;-85
2023/12/19 04:36:35;;;;;;;10.00;6.72;;;8.10;99.90;;;;;;5157087;27;20034;-85
2023/12/19 04:39:02;;;;;;;11.48;6.70;;;8.60;99.90;;;;;;5156899;27;20046;-85
2023/12/19 04:41:27;;;;;;;9.90;6.03;;;8.20;99.90;;;;;;5139661;27;20038;-86
2023/12/19 04:43:53;;;;;;;9.30;6.60;;;8.10;99.90;;;;;;5175332;27;20053;-86
2023/12/19 04:46:19;;;;;;;10.18;6.05;;;8.70;99.90;;;;;;5156937;27;20042;-85
2023/12/19 04:48:45;;;;;;;10.68;6.07;;;8.10;99.90;;;;;;5175212;27;20045;-86
2023/12/19 04:51:20;;;;;;;8.27;6.22;;;8.10;99.90;;;;;;5174997;27;20041;-85
2023/12/19 04:53:47;;;;;;;12.03;6.10;;;8.10;99.90;;;;;;5175635;27;20169;-85
2023/12/19 04:56:13;;;;;;;9.90;5.50;;;8.80;99.90;;;;;;5156680;27;20065;-85
2023/12/19 04:58:40;;;;;;;7.32;5.55;;;8.00;99.90;;;;;;5156378;27;20042;-86
2023/12/19 05:01:06;;;;;;;9.52;5.70;;;8.60;99.90;;;;;;5156618;27;20074;-85
2023/12/19 05:03:33;;;;;;;7.95;5.30;;;8.40;99.90;;;;;;5156686;27;20115;-85
2023/12/19 05:05:59;;;;;;;9.20;5.80;;;8.10;99.90;;;;;;5156388;27;20046;-84
2023/12/19 05:08:25;;;;;;;9.18;6.07;;;8.50;99.90;;;;;;5174517;27;20037;-84
2023/12/19 05:10:51;;;;;;;8.93;6.03;;;8.60;99.90;;;;;;5155802;27;20054;-85
2023/12/19 05:13:16;;;;;;;9.32;5.75;;;8.10;99.90;;;;;;5156275;27;20046;-85
2023/12/19 05:15:42;;;;;;;9.00;5.72;;;8.20;99.90;;;;;;5139316;27;20482;-85
2023/12/19 05:18:08;;;;;;;7.75;5.47;;;8.60;99.90;;;;;;5147749;27;20043;-85
2023/12/19 05:20:34;;;;;;;8.15;5.05;;;8.80;99.90;;;;;;5135764;27;20039;-84
2023/12/19 05:23:01;;;;;;;8.48;5.75;;;8.70;99.90;;;;;;5135589;27;20542;-85
2023/12/19 05:25:27;;;;;;;8.88;5.60;;;8.50;99.90;;;;;;5154091;27;20046;-84
2023/12/19 05:27:52;;;;;;;8.65;5.60;;;8.20;99.90;;;;;;5154067;27;20042;-84
2023/12/19 05:30:18;;;;;;;10.23;6.32;;;8.70;99.90;;;;;;5154074;27;20368;-85
2023/12/19 05:32:44;;;;;;;10.10;6.50;;;8.50;99.90;;;;;;5153847;27;20061;-85
2023/12/19 05:35:10;;;;;;;10.93;6.80;;;8.10;99.90;;;;;;5135172;27;20103;-85
2023/12/19 05:37:35;;;;;;;9.05;5.72;;;8.10;99.90;;;;;;5135464;27;20095;-85
2023/12/19 05:40:02;;;;;;;10.40;5.85;;;8.80;99.90;;;;;;5135742;27;20043;-85
2023/12/19 05:42:27;;;;;;;8.60;4.82;;;8.10;99.90;;;;;;5153138;27;20479;-86
2023/12/19 05:44:53;;;;;;;8.63;5.70;;;8.80;99.90;;;;;;5135307;27;20043;-86
2023/12/19 05:47:19;;;;;;;11.13;5.78;;;8.10;99.90;;;;;;5137454;27;20098;-85
2023/12/19 05:49:44;;;;;;;9.80;6.22;;;8.30;99.90;;;;;;5157661;27;20045;-85
2023/12/19 05:52:10;;;;;;;8.50;5.15;;;8.10;99.90;;;;;;5122303;27;20049;-85
2023/12/19 05:54:36;;;;;;;8.68;5.63;;;8.10;99.90;;;;;;5139720;27;20041;-85
2023/12/19 05:57:01;;;;;;;7.45;4.93;;;8.20;99.90;;;;;;5139391;27;20577;-86
2023/12/19 05:59:27;;;;;;;7.85;5.10;;;8.20;99.90;;;;;;5139643;27;20483;-86
2023/12/19 06:01:53;;;;;;;7.20;4.50;;;8.90;99.90;;;;;;5139315;27;20541;-85
2023/12/19 06:04:18;;;;;;;6.25;4.47;;;8.10;99.90;;;;;;5139095;27;20039;-85
2023/12/19 06:06:44;;;;;;;8.27;5.05;;;8.10;99.90;;;;;;5157627;27;20038;-85
2023/12/19 06:09:13;;;;;;;8.63;4.50;;;8.60;99.90;;;;;;5157928;27;20061;-85
2023/12/19 06:11:39;;;;;;;6.97;4.53;;;8.30;99.90;;;;;;5139386;27;20069;-85
2023/12/19 06:14:06;;;;;;;7.38;4.65;;;8.30;99.90;;;;;;5157767;27;20491;-85
2023/12/19 06:16:32;;;;;;;7.90;5.15;;;8.60;99.90;;;;;;5157422;27;20074;-85
2023/12/19 06:18:58;;;;;;;6.78;4.72;;;8.80;99.90;;;;;;5137796;27;20046;-86
2023/12/19 06:21:24;;;;;;;7.68;4.88;;;8.50;99.90;;;;;;5157188;27;20490;-85
2023/12/19 06:23:50;;;;;;;8.48;4.72;;;8.20;99.90;;;;;;5138743;27;20046;-86
2023/12/19 06:26:16;;;;;;;6.43;4.50;;;9.00;99.90;;;;;;5138717;27;20456;-85
2023/12/19 06:28:42;;;;;;;8.02;4.78;;;8.20;99.90;;;;;;5157051;27;20114;-85
2023/12/19 06:31:08;;;;;;;8.68;4.78;;;8.50;99.90;;;;;;5157140;27;20099;-84
2023/12/19 06:33:36;;;;;;;6.82;4.60;;;8.80;99.90;;;;;;5138779;27;20046;-84
2023/12/19 06:36:02;;;;;;;8.55;4.30;;;9.00;99.90;;;;;;5138413;27;20066;-84
2023/12/19 06:38:29;;;;;;;7.38;4.57;;;8.20;99.90;;;;;;5156564;27;20099;-84
2023/12/19 06:40:54;;;;;;;7.97;4.93;;;8.20;99.90;;;;;;5156587;27;20070;-84
2023/12/19 06:43:20;;;;;;;9.88;4.15;;;8.60;99.90;;;;;;5157115;27;20455;-84
2023/12/19 06:45:46;;;;;;;7.75;4.97;;;8.30;99.90;;;;;;5138367;27;20078;-84
2023/12/19 06:48:11;;;;;;;7.38;5.05;;;8.60;99.90;;;;;;5156701;27;20038;-84
2023/12/19 06:50:39;;;;;;;7.13;4.75;;;8.30;99.90;;;;;;5132039;27;20046;-84
2023/12/19 06:53:04;;;;;;;5.65;4.18;;;8.80;99.90;;;;;;5133956;27;20103;-84
2023/12/19 06:55:30;;;;;;;7.55;4.78;;;9.00;99.90;;;;;;5121158;27;20030;-84
2023/12/19 06:57:56;;;;;;;8.18;4.88;;;9.00;99.90;;;;;;5155117;27;20045;-84
2023/12/19 07:00:22;;;;;;;6.95;4.72;;;9.10;99.90;;;;;;5137670;27;20035;-84
2023/12/19 07:02:47;;;;;;;6.57;4.40;;;8.70;99.90;;;;;;5156445;27;20107;-84
2023/12/19 07:05:13;;;;;;;9.48;4.90;;;8.30;99.90;;;;;;5137950;27;20043;-84
2023/12/19 07:07:39;;;;;;;7.38;4.90;;;8.30;99.90;;;;;;5156338;27;20042;-86
2023/12/19 07:10:05;;;;;;;8.27;4.68;;;8.30;99.90;;;;;;5137364;27;20416;-84
2023/12/19 07:12:31;;;;;;;6.78;4.95;;;8.30;99.90;;;;;;5137517;27;20046;-84
2023/12/19 07:14:57;;;;;;;8.15;4.90;;;8.70;99.90;;;;;;5120006;27;20034;-85
2023/12/19 07:17:22;;;;;;;6.68;4.22;;;8.30;99.90;;;;;;5137116;27;20055;-85
2023/12/19 07:19:48;;;;;;;6.28;4.28;;;8.60;99.90;;;;;;5157864;27;20379;-84
2023/12/19 07:22:14;;;;;;;9.48;4.85;;;8.70;99.90;;;;;;5158520;27;20042;-85
2023/12/19 07:24:40;;;;;;;7.95;5.05;;;8.50;99.90;;;;;;5158980;27;20459;-84
2023/12/19 07:27:06;;;;;;;7.22;4.72;;;8.60;99.90;;;;;;5158471;27;20090;-84
2023/12/19 07:29:31;;;;;;;7.38;4.43;;;9.00;99.90;;;;;;5133187;27;20039;-85
2023/12/19 07:31:58;;;;;;;6.53;4.43;;;9.00;99.90;;;;;;5155854;27;20075;-84
2023/12/19 07:34:24;;;;;;;6.05;4.38;;;8.30;99.90;;;;;;5137733;27;20042;-85
2023/12/19 07:36:51;;;;;;;7.35;4.85;;;8.30;99.90;;;;;;5137134;27;20398;-85
2023/12/19 07:39:17;;;;;;;7.05;4.65;;;8.40;99.90;;;;;;5138370;27;20039;-84
2023/12/19 07:41:42;;;;;;;7.65;4.50;;;8.70;99.90;;;;;;5155703;27;20049;-85
2023/12/19 07:44:13;;;;;;;7.63;4.38;;;8.30;99.90;;;;;;5137071;27;20041;-83
2023/12/19 07:46:40;;;;;;;7.93;3.92;;;8.30;99.90;;;;;;5155348;27;20035;-83
2023/12/19 07:49:06;;;;;;;5.28;3.42;;;8.60;99.90;;;;;;5155906;27;20039;-85
2023/12/19 07:51:32;;;;;;;5.10;3.60;;;8.20;99.90;;;;;;5164943;27;20398;-84
2023/12/19 07:53:57;;;;;;;6.55;3.95;;;8.30;99.90;;;;;;5156105;27;20039;-85
2023/12/19 07:56:23;;;;;;;4.97;3.80;;;8.40;99.90;;;;;;5155698;27;20074;-85
2023/12/19 07:58:49;;;;;;;5.32;3.90;;;8.30;99.90;;;;;;5155521;27;20543;-85
2023/12/19 08:01:16;;;;;;;5.30;3.60;;;8.80;99.90;;;;;;5138245;27;20045;-85
2023/12/19 08:03:43;;;;;;;6.10;3.75;;;8.30;99.90;;;;;;5176459;27;20038;-84
2023/12/19 08:06:09;;;;;;;5.97;3.67;;;8.90;99.90;;;;;;5150158;27;20038;-85
2023/12/19 08:08:35;;;;;;;6.53;3.35;;;8.70;99.90;;;;;;5155405;27;20380;-84
2023/12/19 08:11:00;;;;;;;5.82;3.80;;;8.30;99.90;;;;;;5131122;27;20055;-84
2023/12/19 08:13:26;;;;;;;4.78;3.25;;;8.50;99.90;;;;;;5134652;27;20047;-84
2023/12/19 08:15:52;;;;;;;5.47;3.88;;;8.80;99.90;;;;;;5115992;27;20027;-87
2023/12/19 08:18:20;;;;;;;6.45;4.80;;;8.30;99.90;;;;;;5143891;27;20042;-84
2023/12/19 08:20:46;;;;;;;7.07;3.72;;;8.30;99.90;;;;;;5128198;27;20038;-84
2023/12/19 08:23:12;;;;;;;5.80;3.58;;;8.30;99.90;;;;;;5133979;27;20054;-84
2023/12/19 08:25:41;;;;;;;5.10;3.30;;;8.70;99.90;;;;;;5115951;27;20039;-84
2023/12/19 08:28:07;;;;;;;6.25;3.92;;;8.30;99.90;;;;;;5134327;27;20046;-83
2023/12/19 08:30:33;;;;;;;6.13;3.88;;;8.60;99.90;;;;;;5134395;27;20035;-83
2023/12/19 08:32:59;;;;;;;5.10;3.30;;;8.80;99.90;;;;;;5115813;27;20385;-86
2023/12/19 08:35:25;;;;;;;5.03;3.45;;;8.60;99.90;;;;;;5116131;27;20034;-83
2023/12/19 08:37:51;;;;;;;6.72;3.70;;;9.00;99.90;;;;;;5133917;27;20051;-83
2023/12/19 08:40:18;;;;;;;5.93;3.63;;;8.50;99.90;;;;;;5115715;27;20094;-83
2023/12/19 08:42:44;;;;;;;5.63;3.50;;;9.00;99.90;;;;;;5115587;27;20471;-86
2023/12/19 08:45:18;;;;;;;9.77;4.55;;;8.30;99.90;;;;;;5115661;27;20042;-84
2023/12/19 08:47:45;;;;;;;6.50;3.83;;;9.00;99.90;;;;;;5099580;27;20089;-83
2023/12/19 08:50:12;;;;;;;5.03;3.85;;;9.10;99.90;;;;;;5120389;27;20031;-83
2023/12/19 08:52:39;;;;;;;6.30;3.85;;;8.40;99.90;;;;;;5118430;27;20407;-84
2023/12/19 08:55:11;;;;;;;6.40;4.50;;;8.50;99.90;;;;;;5115867;27;20416;-85
2023/12/19 08:57:41;;;;;;;5.78;3.85;;;8.60;99.90;;;;;;5134263;27;20114;-85
2023/12/19 09:00:12;;;;;;;6.53;4.03;;;8.90;99.90;;;;;;5115662;27;20048;-85
2023/12/19 09:02:42;;;;;;;5.90;3.88;;;8.40;99.90;;;;;;5115015;27;20053;-85
2023/12/19 09:05:11;;;;;;;5.63;3.83;;;8.90;99.90;;;;;;5115439;27;20479;-86
2023/12/19 09:07:37;;;;;;;7.53;4.50;;;8.40;99.90;;;;;;5106936;27;20042;-86
2023/12/19 09:10:03;;;;;;;6.63;4.55;;;8.70;99.90;;;;;;5121961;27;20051;-84
2023/12/19 09:12:29;;;;;;;7.68;4.32;;;8.40;99.90;;;;;;5153169;27;20062;-83
2023/12/19 09:14:54;;;;;;;7.28;4.78;;;8.40;99.90;;;;;;5152908;27;20038;-84
2023/12/19 09:17:20;;;;;;;6.82;4.90;;;8.50;99.90;;;;;;5144391;27;20038;-84
2023/12/19 09:19:46;;;;;;;7.53;5.53;;;8.40;99.90;;;;;;5135639;27;20035;-86
2023/12/19 09:22:11;;;;;;;10.40;6.18;;;8.70;99.90;;;;;;5134437;27;20414;-84
2023/12/19 09:24:37;;;;;;;10.60;6.30;;;8.70;99.90;;;;;;5154262;27;20406;-84
2023/12/19 09:27:03;;;;;;;10.90;6.68;;;8.70;99.90;;;;;;5153901;27;20038;-85
2023/12/19 09:29:29;;;;;;;11.95;7.30;;;8.50;99.90;;;;;;5135693;27;20062;-86
2023/12/19 09:31:56;;;;;;;10.05;6.72;;;8.60;99.90;;;;;;5153862;27;20122;-84
2023/12/19 09:34:21;;;;;;;11.98;7.15;;;9.30;99.90;;;;;;5154103;27;20168;-85
2023/12/19 09:36:47;;;;;;;12.00;7.45;;;9.20;99.90;;;;;;5135443;27;20070;-84
2023/12/19 09:39:16;;;;;;;10.25;7.60;;;9.00;99.90;;;;;;5154279;27;20046;-84
2023/12/19 09:41:47;;;;;;;11.20;7.72;;;8.60;99.90;;;;;;5135802;27;20049;-84
2023/12/19 09:44:13;;;;;;;10.40;7.38;;;9.20;99.90;;;;;;5154015;27;20072;-84
2023/12/19 09:46:41;;;;;;;13.88;7.55;;;8.90;99.90;;;;;;5135351;27;20035;-85
2023/12/19 09:49:11;;;;;;;12.20;7.57;;;9.40;99.90;;;;;;5153851;27;20042;-85
2023/12/19 09:51:42;;;;;;;10.77;7.47;;;9.10;99.90;;;;;;5135943;27;20049;-84
2023/12/19 09:54:08;;;;;;;10.93;7.18;;;8.70;99.90;;;;;;5154368;27;20117;-84
2023/12/19 09:56:35;;;;;;;13.23;7.70;;;8.70;99.90;;;;;;5135622;27;20084;-84
2023/12/19 09:59:02;;;;;;;12.30;7.93;;;8.80;99.90;;;;;;5154019;27;20406;-84
2023/12/19 10:01:28;;;;;;;10.65;6.97;;;8.70;99.90;;;;;;5135752;27;20053;-85
2023/12/19 10:03:55;;;;;;;9.73;7.00;;;8.80;99.90;;;;;;5118162;27;20475;-84
2023/12/19 10:06:22;;;;;;;11.48;6.35;;;8.80;99.90;;;;;;5135510;27;20103;-84
2023/12/19 10:08:52;;;;;;;10.68;6.78;;;8.80;99.90;;;;;;5135713;27;20042;-84
2023/12/19 10:11:18;;;;;;;11.55;6.75;;;9.50;99.90;;;;;;5135137;27;20491;-85
2023/12/19 10:13:48;;;;;;;10.60;7.28;;;9.50;99.90;;;;;;5135483;27;20180;-84
2023/12/19 10:16:17;;;;;;;10.20;6.43;;;8.90;99.90;;;;;;5135380;27;20043;-84
2023/12/19 10:18:52;;;;;;;10.65;6.60;;;9.10;99.90;;;;;;5134877;27;20129;-83
2023/12/19 10:21:20;;;;;;;11.63;6.25;;;9.60;99.90;;;;;;5153764;27;20400;-84
2023/12/19 10:23:46;;;;;;;7.93;5.88;;;9.00;99.90;;;;;;5153685;27;20420;-84
2023/12/19 10:26:12;;;;;;;9.00;5.93;;;9.70;99.90;;;;;;5135399;27;20199;-84
2023/12/19 10:28:38;;;;;;;8.55;6.43;;;8.90;99.90;;;;;;5153798;27;20042;-84
2023/12/19 10:31:17;;;;;;;9.55;5.78;;;9.00;99.90;;;;;;5153537;27;20041;-85
2023/12/19 10:33:45;;;;;;;7.50;5.28;;;9.30;99.90;;;;;;5137578;27;20088;-84
2023/12/19 10:36:24;;;;;;;10.23;5.68;;;9.20;99.90;;;;;;5138540;27;20053;-85
2023/12/19 10:38:51;;;;;;;9.88;6.10;;;9.20;99.90;;;;;;5138576;27;20043;-84
2023/12/19 10:41:24;;;;;;;9.23;5.70;;;9.00;99.90;;;;;;5138941;27;20117;-85
2023/12/19 10:43:52;;;;;;;6.63;4.38;;;9.10;99.90;;;;;;5156894;27;20070;-84
2023/12/19 10:46:19;;;;;;;9.07;5.13;;;9.50;99.90;;;;;;5138649;27;20347;-85
2023/12/19 10:48:47;;;;;;;9.75;5.00;;;9.20;99.90;;;;;;5136471;27;20511;-84
2023/12/19 10:51:17;;;;;;;8.43;5.30;;;9.10;99.90;;;;;;5130263;27;20403;-84
2023/12/19 10:53:58;;;;;;;7.65;5.15;;;9.80;99.90;;;;;;5117557;27;20047;-85
2023/12/19 10:56:24;;;;;;;7.95;4.60;;;9.20;99.90;;;;;;5117015;27;20039;-87
2023/12/19 10:59:01;;;;;;;7.32;4.85;;;9.10;99.90;;;;;;5117622;27;20484;-84
2023/12/19 11:01:30;;;;;;;9.75;5.75;;;9.20;99.90;;;;;;5099056;27;20042;-84
2023/12/19 11:04:02;;;;;;;7.18;4.70;;;9.20;99.90;;;;;;5117727;27;20054;-88
2023/12/19 11:06:35;;;;;;;8.02;4.93;;;9.30;99.90;;;;;;5100801;27;20039;-84
2023/12/19 11:09:05;;;;;;;7.90;5.30;;;9.80;99.90;;;;;;5129034;27;20039;-87
2023/12/19 11:11:38;;;;;;;7.57;4.90;;;9.30;99.90;;;;;;5120300;27;20047;-85
2023/12/19 11:14:07;;;;;;;6.93;4.72;;;9.30;99.90;;;;;;5117097;27;20047;-86
2023/12/19 11:16:45;;;;;;;10.07;5.28;;;9.30;99.90;;;;;;5135486;27;20054;-85
2023/12/19 11:19:15;;;;;;;9.98;4.93;;;9.40;99.90;;;;;;5117198;27;20082;-84
2023/12/19 11:21:53;;;;;;;7.47;5.03;;;9.40;99.90;;;;;;5135302;27;20543;-86
2023/12/19 11:24:33;;;;;;;8.32;4.78;;;10.10;99.90;;;;;;5116581;27;20522;-85
2023/12/19 11:27:21;;;;;;;11.35;5.15;;;9.40;99.90;;;;;;5116887;27;20494;-85
2023/12/19 11:29:55;;;;;;;11.23;5.45;;;9.40;99.90;;;;;;5099855;27;20047;-85
2023/12/19 11:32:27;;;;;;;8.20;5.43;;;9.40;99.90;;;;;;5116998;27;20085;-85
2023/12/19 11:34:53;;;;;;;9.07;5.68;;;9.70;99.90;;;;;;5117036;27;20051;-85
2023/12/19 11:37:22;;;;;;;9.32;6.32;;;9.50;99.90;;;;;;5116559;27;20043;-85
2023/12/19 11:39:48;;;;;;;9.82;5.82;;;9.50;99.90;;;;;;5139268;27;20050;-85
2023/12/19 11:42:38;;;;;;;12.48;6.65;;;9.50;99.90;;;;;;5136890;27;20035;-85
2023/12/19 11:45:27;;;;;;;9.10;5.45;;;9.50;99.90;;;;;;5122628;27;20046;-85
2023/12/19 11:47:53;;;;;;;8.70;6.47;;;9.50;99.90;;;;;;5135158;27;20055;-87
2023/12/19 11:50:40;;;;;;;8.85;5.95;;;9.40;99.90;;;;;;5099767;27;20039;-87
2023/12/19 11:53:07;;;;;;;9.15;5.70;;;9.50;99.90;;;;;;5116574;27;20050;-86
2023/12/19 11:55:32;;;;;;;10.77;6.80;;;9.50;99.90;;;;;;5116556;27;20184;-85
2023/12/19 11:58:12;;;;;;;10.20;6.70;;;9.50;99.90;;;;;;5116520;27;20134;-86
2023/12/19 12:00:38;;;;;;;12.20;7.57;;;10.10;99.90;;;;;;5134765;27;20080;-85
2023/12/19 12:03:08;;;;;;;10.73;7.47;;;9.50;99.90;;;;;;5099685;27;20550;-85
2023/12/19 12:05:36;;;;;;;10.07;7.43;;;9.70;99.90;;;;;;5134705;27;20039;-85
2023/12/19 12:08:03;;;;;;;10.88;7.43;;;9.40;99.90;;;;;;5116015;27;20047;-85
2023/12/19 12:10:29;;;;;;;11.43;8.20;;;9.50;99.90;;;;;;5122605;27;20136;-86
2023/12/19 12:13:01;;;;;;;10.63;7.78;;;9.50;99.90;;;;;;5127019;27;20495;-85
2023/12/19 12:15:28;;;;;;;11.32;8.75;;;9.50;99.90;;;;;;5135658;27;20047;-85
2023/12/19 12:18:12;;;;;;;14.00;8.20;;;9.60;99.90;;;;;;5163982;27;20039;-86
2023/12/19 12:20:38;;;;;;;12.73;8.90;;;9.50;99.90;;;;;;5136607;27;20133;-85
2023/12/19 12:23:04;;;;;;;10.98;7.50;;;9.50;99.90;;;;;;5155308;27;20069;-86
2023/12/19 12:25:31;;;;;;;17.48;11.05;;;9.50;99.90;;;;;;5136027;27;20074;-85
2023/12/19 12:28:10;;;;;;;14.50;8.40;;;9.50;99.90;;;;;;5140846;27;20480;-85
2023/12/19 12:30:39;;;;;;;11.63;8.00;;;9.50;99.90;;;;;;5175949;27;20043;-85
2023/12/19 12:33:05;;;;;;;11.85;8.57;;;9.50;99.90;;;;;;5157387;27;20034;-86
2023/12/19 12:35:36;;;;;;;17.92;10.82;;;9.50;99.90;;;;;;5157398;27;20478;-84
2023/12/19 12:38:03;;;;;;;12.95;8.73;;;9.60;99.90;;;;;;5175771;27;20042;-86
2023/12/19 12:40:30;;;;;;;11.13;8.23;;;9.50;99.90;;;;;;5166810;27;20047;-85
2023/12/19 12:43:25;;;;;;;7.35;5.75;;;9.50;99.90;;;;;;5163434;27;20049;-86
2023/12/19 12:46:11;;;;;;;9.50;6.15;;;9.50;99.90;;;;;;5070671;28;20125;-85
2023/12/19 12:48:46;;;;;;;7.07;5.43;;;9.40;99.90;;;;;;5054206;28;20382;-85